sensor_id;sensor_type;location;lat;lon;timestamp;P1;durP1;ratioP1;P2;durP2;ratioP2
47659;SDS011;33403;43.608;1.458;2023-07-31T00:02:00;8.25;;;4.10;;
47659;SDS011;33403;43.608;1.458;2023-07-31T00:04:26;9.18;;;4.00;;
47659;SDS011;33403;43.608;1.458;2023-07-31T00:06:52;8.35;;;3.95;;
47659;SDS011;33403;43.608;1.458;2023-07-31T00:09:17;7.25;;;3.97;;
47659;SDS011;33403;43.608;1.458;2023-07-31T00:11:43;7.47;;;3.55;;
47659;SDS011;33403;43.608;1.458;2023-07-31T00:14:09;8.15;;;4.10;;
47659;SDS011;33403;43.608;1.458;2023-07-31T00:16:34;5.63;;;3.50;;
47659;SDS011;33403;43.608;1.458;2023-07-31T00:19:00;9.35;;;4.28;;
47659;SDS011;33403;43.608;1.458;2023-07-31T00:21:26;8.10;;;3.80;;
47659;SDS011;33403;43.608;1.458;2023-07-31T00:23:51;10.05;;;4.20;;
47659;SDS011;33403;43.608;1.458;2023-07-31T00:26:17;6.68;;;3.95;;
47659;SDS011;33403;43.608;1.458;2023-07-31T00:28:43;8.60;;;3.80;;
47659;SDS011;33403;43.608;1.458;2023-07-31T00:31:08;8.77;;;4.35;;
47659;SDS011;33403;43.608;1.458;2023-07-31T00:33:34;8.63;;;4.15;;
47659;SDS011;33403;43.608;1.458;2023-07-31T00:36:01;10.55;;;4.00;;
47659;SDS011;33403;43.608;1.458;2023-07-31T00:38:26;8.13;;;3.83;;
47659;SDS011;33403;43.608;1.458;2023-07-31T00:40:52;8.60;;;3.95;;
47659;SDS011;33403;43.608;1.458;2023-07-31T00:43:17;7.35;;;3.58;;
47659;SDS011;33403;43.608;1.458;2023-07-31T00:45:43;7.88;;;3.75;;
47659;SDS011;33403;43.608;1.458;2023-07-31T00:48:09;10.07;;;3.95;;
47659;SDS011;33403;43.608;1.458;2023-07-31T00:50:35;7.20;;;3.65;;
47659;SDS011;33403;43.608;1.458;2023-07-31T00:53:01;8.10;;;3.70;;
47659;SDS011;33403;43.608;1.458;2023-07-31T00:55:27;8.27;;;4.22;;
47659;SDS011;33403;43.608;1.458;2023-07-31T00:57:52;5.90;;;3.67;;
47659;SDS011;33403;43.608;1.458;2023-07-31T01:00:20;6.85;;;3.90;;
47659;SDS011;33403;43.608;1.458;2023-07-31T01:02:46;6.88;;;3.58;;
47659;SDS011;33403;43.608;1.458;2023-07-31T01:05:15;8.75;;;4.15;;
47659;SDS011;33403;43.608;1.458;2023-07-31T01:07:44;9.30;;;3.67;;
47659;SDS011;33403;43.608;1.458;2023-07-31T01:12:47;7.35;;;3.42;;
47659;SDS011;33403;43.608;1.458;2023-07-31T01:15:14;8.43;;;3.90;;
47659;SDS011;33403;43.608;1.458;2023-07-31T01:17:42;8.48;;;3.83;;
47659;SDS011;33403;43.608;1.458;2023-07-31T01:20:16;8.02;;;3.90;;
47659;SDS011;33403;43.608;1.458;2023-07-31T01:28:15;7.05;;;3.75;;
47659;SDS011;33403;43.608;1.458;2023-07-31T01:30:47;6.97;;;4.00;;
47659;SDS011;33403;43.608;1.458;2023-07-31T01:33:14;8.38;;;4.30;;
47659;SDS011;33403;43.608;1.458;2023-07-31T01:35:43;9.95;;;3.92;;
47659;SDS011;33403;43.608;1.458;2023-07-31T01:38:10;9.05;;;3.97;;
47659;SDS011;33403;43.608;1.458;2023-07-31T01:40:35;7.60;;;3.60;;
47659;SDS011;33403;43.608;1.458;2023-07-31T01:43:01;10.32;;;4.40;;
47659;SDS011;33403;43.608;1.458;2023-07-31T01:45:27;9.05;;;3.90;;
47659;SDS011;33403;43.608;1.458;2023-07-31T01:47:52;8.65;;;4.53;;
47659;SDS011;33403;43.608;1.458;2023-07-31T01:50:18;6.97;;;4.10;;
47659;SDS011;33403;43.608;1.458;2023-07-31T01:52:44;6.70;;;3.97;;
47659;SDS011;33403;43.608;1.458;2023-07-31T01:55:09;9.50;;;4.38;;
47659;SDS011;33403;43.608;1.458;2023-07-31T01:57:36;7.28;;;3.97;;
47659;SDS011;33403;43.608;1.458;2023-07-31T02:00:02;7.03;;;4.03;;
47659;SDS011;33403;43.608;1.458;2023-07-31T02:02:29;8.15;;;4.10;;
47659;SDS011;33403;43.608;1.458;2023-07-31T02:04:54;9.07;;;4.13;;
47659;SDS011;33403;43.608;1.458;2023-07-31T02:07:20;7.10;;;4.10;;
47659;SDS011;33403;43.608;1.458;2023-07-31T02:09:45;8.30;;;4.10;;
47659;SDS011;33403;43.608;1.458;2023-07-31T02:12:12;7.90;;;4.05;;
47659;SDS011;33403;43.608;1.458;2023-07-31T02:14:39;7.32;;;4.20;;
47659;SDS011;33403;43.608;1.458;2023-07-31T02:17:05;7.45;;;4.20;;
47659;SDS011;33403;43.608;1.458;2023-07-31T02:19:31;8.98;;;4.32;;
47659;SDS011;33403;43.608;1.458;2023-07-31T02:21:57;8.50;;;4.22;;
47659;SDS011;33403;43.608;1.458;2023-07-31T02:24:23;8.25;;;4.30;;
47659;SDS011;33403;43.608;1.458;2023-07-31T02:26:49;8.50;;;4.22;;
47659;SDS011;33403;43.608;1.458;2023-07-31T02:29:15;10.27;;;3.85;;
47659;SDS011;33403;43.608;1.458;2023-07-31T02:31:40;7.30;;;4.32;;
47659;SDS011;33403;43.608;1.458;2023-07-31T02:34:06;7.75;;;3.78;;
47659;SDS011;33403;43.608;1.458;2023-07-31T02:36:32;8.00;;;4.00;;
47659;SDS011;33403;43.608;1.458;2023-07-31T02:38:57;7.65;;;4.22;;
47659;SDS011;33403;43.608;1.458;2023-07-31T02:41:23;5.55;;;3.60;;
47659;SDS011;33403;43.608;1.458;2023-07-31T02:43:49;7.35;;;4.10;;
47659;SDS011;33403;43.608;1.458;2023-07-31T02:46:14;7.53;;;3.85;;
47659;SDS011;33403;43.608;1.458;2023-07-31T02:48:40;5.70;;;3.70;;
47659;SDS011;33403;43.608;1.458;2023-07-31T02:51:05;8.18;;;4.10;;
47659;SDS011;33403;43.608;1.458;2023-07-31T02:53:31;8.75;;;4.25;;
47659;SDS011;33403;43.608;1.458;2023-07-31T02:55:57;9.10;;;4.50;;
47659;SDS011;33403;43.608;1.458;2023-07-31T02:58:22;8.43;;;4.00;;
47659;SDS011;33403;43.608;1.458;2023-07-31T03:00:48;11.60;;;4.07;;
47659;SDS011;33403;43.608;1.458;2023-07-31T03:03:14;7.43;;;3.80;;
47659;SDS011;33403;43.608;1.458;2023-07-31T03:05:39;7.70;;;4.13;;
47659;SDS011;33403;43.608;1.458;2023-07-31T03:08:05;8.80;;;3.85;;
47659;SDS011;33403;43.608;1.458;2023-07-31T03:10:31;8.65;;;3.80;;
47659;SDS011;33403;43.608;1.458;2023-07-31T03:12:56;8.45;;;4.13;;
47659;SDS011;33403;43.608;1.458;2023-07-31T03:15:22;8.60;;;4.38;;
47659;SDS011;33403;43.608;1.458;2023-07-31T03:17:48;8.55;;;3.90;;
47659;SDS011;33403;43.608;1.458;2023-07-31T03:20:13;8.50;;;4.05;;
47659;SDS011;33403;43.608;1.458;2023-07-31T03:22:39;9.57;;;4.18;;
47659;SDS011;33403;43.608;1.458;2023-07-31T03:25:05;6.55;;;3.70;;
47659;SDS011;33403;43.608;1.458;2023-07-31T03:27:31;9.30;;;4.13;;
47659;SDS011;33403;43.608;1.458;2023-07-31T03:29:56;8.70;;;3.95;;
47659;SDS011;33403;43.608;1.458;2023-07-31T03:32:22;8.82;;;3.90;;
47659;SDS011;33403;43.608;1.458;2023-07-31T03:34:49;7.78;;;3.95;;
47659;SDS011;33403;43.608;1.458;2023-07-31T03:37:14;6.57;;;3.50;;
47659;SDS011;33403;43.608;1.458;2023-07-31T03:39:40;7.47;;;4.00;;
47659;SDS011;33403;43.608;1.458;2023-07-31T03:42:06;8.15;;;3.85;;
47659;SDS011;33403;43.608;1.458;2023-07-31T03:44:31;7.38;;;3.80;;
47659;SDS011;33403;43.608;1.458;2023-07-31T03:46:57;12.20;;;4.15;;
47659;SDS011;33403;43.608;1.458;2023-07-31T03:49:22;6.63;;;4.07;;
47659;SDS011;33403;43.608;1.458;2023-07-31T03:51:49;8.25;;;4.20;;
47659;SDS011;33403;43.608;1.458;2023-07-31T03:54:15;5.68;;;4.05;;
47659;SDS011;33403;43.608;1.458;2023-07-31T03:56:40;7.18;;;3.90;;
47659;SDS011;33403;43.608;1.458;2023-07-31T03:59:06;9.20;;;4.07;;
47659;SDS011;33403;43.608;1.458;2023-07-31T04:01:32;8.20;;;4.10;;
47659;SDS011;33403;43.608;1.458;2023-07-31T04:03:58;7.78;;;3.83;;
47659;SDS011;33403;43.608;1.458;2023-07-31T04:06:23;7.90;;;3.97;;
47659;SDS011;33403;43.608;1.458;2023-07-31T04:08:49;9.00;;;3.90;;
47659;SDS011;33403;43.608;1.458;2023-07-31T04:11:15;8.45;;;3.83;;
47659;SDS011;33403;43.608;1.458;2023-07-31T04:13:40;8.48;;;4.18;;
47659;SDS011;33403;43.608;1.458;2023-07-31T04:16:06;7.50;;;3.90;;
47659;SDS011;33403;43.608;1.458;2023-07-31T04:18:31;10.75;;;4.57;;
47659;SDS011;33403;43.608;1.458;2023-07-31T04:20:58;8.45;;;4.03;;
47659;SDS011;33403;43.608;1.458;2023-07-31T04:23:24;7.82;;;3.92;;
47659;SDS011;33403;43.608;1.458;2023-07-31T04:25:50;7.07;;;3.90;;
47659;SDS011;33403;43.608;1.458;2023-07-31T04:28:16;10.00;;;4.00;;
47659;SDS011;33403;43.608;1.458;2023-07-31T04:30:42;8.80;;;3.92;;
47659;SDS011;33403;43.608;1.458;2023-07-31T04:33:07;11.90;;;4.57;;
47659;SDS011;33403;43.608;1.458;2023-07-31T04:35:33;7.70;;;4.05;;
47659;SDS011;33403;43.608;1.458;2023-07-31T04:37:59;7.95;;;4.10;;
47659;SDS011;33403;43.608;1.458;2023-07-31T04:40:24;7.65;;;4.22;;
47659;SDS011;33403;43.608;1.458;2023-07-31T04:42:50;7.03;;;4.00;;
47659;SDS011;33403;43.608;1.458;2023-07-31T04:45:16;7.57;;;4.20;;
47659;SDS011;33403;43.608;1.458;2023-07-31T04:47:41;7.97;;;4.30;;
47659;SDS011;33403;43.608;1.458;2023-07-31T04:50:07;7.55;;;3.97;;
47659;SDS011;33403;43.608;1.458;2023-07-31T04:52:33;7.43;;;4.28;;
47659;SDS011;33403;43.608;1.458;2023-07-31T04:54:59;8.00;;;3.90;;
47659;SDS011;33403;43.608;1.458;2023-07-31T04:57:24;9.05;;;4.28;;
47659;SDS011;33403;43.608;1.458;2023-07-31T04:59:50;9.68;;;4.50;;
47659;SDS011;33403;43.608;1.458;2023-07-31T05:02:16;7.88;;;4.18;;
47659;SDS011;33403;43.608;1.458;2023-07-31T05:04:41;7.90;;;4.15;;
47659;SDS011;33403;43.608;1.458;2023-07-31T05:07:07;7.80;;;4.05;;
47659;SDS011;33403;43.608;1.458;2023-07-31T05:09:32;8.30;;;4.00;;
47659;SDS011;33403;43.608;1.458;2023-07-31T05:11:58;9.60;;;4.63;;
47659;SDS011;33403;43.608;1.458;2023-07-31T05:14:24;9.80;;;4.28;;
47659;SDS011;33403;43.608;1.458;2023-07-31T05:16:50;11.07;;;3.97;;
47659;SDS011;33403;43.608;1.458;2023-07-31T05:19:16;6.25;;;4.05;;
47659;SDS011;33403;43.608;1.458;2023-07-31T05:21:42;8.25;;;4.20;;
47659;SDS011;33403;43.608;1.458;2023-07-31T05:24:08;10.50;;;4.05;;
47659;SDS011;33403;43.608;1.458;2023-07-31T05:26:33;10.02;;;4.13;;
47659;SDS011;33403;43.608;1.458;2023-07-31T05:28:59;9.68;;;4.35;;
47659;SDS011;33403;43.608;1.458;2023-07-31T05:31:24;8.77;;;3.72;;
47659;SDS011;33403;43.608;1.458;2023-07-31T05:33:50;8.65;;;4.05;;
47659;SDS011;33403;43.608;1.458;2023-07-31T05:36:16;10.63;;;4.45;;
47659;SDS011;33403;43.608;1.458;2023-07-31T05:38:42;11.75;;;4.00;;
47659;SDS011;33403;43.608;1.458;2023-07-31T05:41:11;8.52;;;3.70;;
47659;SDS011;33403;43.608;1.458;2023-07-31T05:43:37;12.88;;;4.28;;
47659;SDS011;33403;43.608;1.458;2023-07-31T05:46:03;8.40;;;3.65;;
47659;SDS011;33403;43.608;1.458;2023-07-31T05:48:29;8.93;;;4.20;;
47659;SDS011;33403;43.608;1.458;2023-07-31T05:50:54;12.77;;;4.40;;
47659;SDS011;33403;43.608;1.458;2023-07-31T05:53:20;13.70;;;4.18;;
47659;SDS011;33403;43.608;1.458;2023-07-31T05:55:46;8.10;;;3.97;;
47659;SDS011;33403;43.608;1.458;2023-07-31T05:58:11;9.77;;;3.90;;
47659;SDS011;33403;43.608;1.458;2023-07-31T06:00:37;8.85;;;4.40;;
47659;SDS011;33403;43.608;1.458;2023-07-31T06:03:03;8.10;;;3.55;;
47659;SDS011;33403;43.608;1.458;2023-07-31T06:05:29;11.68;;;4.15;;
47659;SDS011;33403;43.608;1.458;2023-07-31T06:07:55;9.65;;;4.35;;
47659;SDS011;33403;43.608;1.458;2023-07-31T06:10:22;9.20;;;4.00;;
47659;SDS011;33403;43.608;1.458;2023-07-31T06:12:47;10.18;;;3.63;;
47659;SDS011;33403;43.608;1.458;2023-07-31T06:15:13;9.52;;;4.13;;
47659;SDS011;33403;43.608;1.458;2023-07-31T06:17:39;9.77;;;3.90;;
47659;SDS011;33403;43.608;1.458;2023-07-31T06:20:05;10.18;;;4.20;;
47659;SDS011;33403;43.608;1.458;2023-07-31T06:22:32;10.55;;;3.92;;
47659;SDS011;33403;43.608;1.458;2023-07-31T06:24:57;10.98;;;4.07;;
47659;SDS011;33403;43.608;1.458;2023-07-31T06:27:23;10.50;;;4.07;;
47659;SDS011;33403;43.608;1.458;2023-07-31T06:29:49;9.85;;;4.43;;
47659;SDS011;33403;43.608;1.458;2023-07-31T06:32:15;9.38;;;3.28;;
47659;SDS011;33403;43.608;1.458;2023-07-31T06:34:40;9.35;;;3.88;;
47659;SDS011;33403;43.608;1.458;2023-07-31T06:37:06;7.28;;;3.90;;
47659;SDS011;33403;43.608;1.458;2023-07-31T06:39:31;9.30;;;4.15;;
47659;SDS011;33403;43.608;1.458;2023-07-31T06:41:57;13.35;;;3.85;;
47659;SDS011;33403;43.608;1.458;2023-07-31T06:44:23;8.98;;;4.05;;
47659;SDS011;33403;43.608;1.458;2023-07-31T06:46:48;10.65;;;4.15;;
47659;SDS011;33403;43.608;1.458;2023-07-31T06:49:14;9.43;;;3.67;;
47659;SDS011;33403;43.608;1.458;2023-07-31T06:51:42;10.90;;;3.60;;
47659;SDS011;33403;43.608;1.458;2023-07-31T06:54:09;8.85;;;4.45;;
47659;SDS011;33403;43.608;1.458;2023-07-31T06:56:34;9.02;;;3.90;;
47659;SDS011;33403;43.608;1.458;2023-07-31T06:59:00;8.20;;;3.55;;
47659;SDS011;33403;43.608;1.458;2023-07-31T07:01:26;9.73;;;4.00;;
47659;SDS011;33403;43.608;1.458;2023-07-31T07:03:53;7.05;;;3.70;;
47659;SDS011;33403;43.608;1.458;2023-07-31T07:06:19;10.98;;;4.10;;
47659;SDS011;33403;43.608;1.458;2023-07-31T07:08:45;9.88;;;4.20;;
47659;SDS011;33403;43.608;1.458;2023-07-31T07:11:11;10.55;;;3.58;;
47659;SDS011;33403;43.608;1.458;2023-07-31T07:13:36;9.77;;;3.88;;
47659;SDS011;33403;43.608;1.458;2023-07-31T07:16:02;8.23;;;3.88;;
47659;SDS011;33403;43.608;1.458;2023-07-31T07:18:28;8.80;;;3.60;;
47659;SDS011;33403;43.608;1.458;2023-07-31T07:20:53;9.20;;;3.75;;
47659;SDS011;33403;43.608;1.458;2023-07-31T07:23:20;11.20;;;3.53;;
47659;SDS011;33403;43.608;1.458;2023-07-31T07:25:46;10.25;;;4.15;;
47659;SDS011;33403;43.608;1.458;2023-07-31T07:28:12;11.32;;;4.22;;
47659;SDS011;33403;43.608;1.458;2023-07-31T07:30:38;9.70;;;3.83;;
47659;SDS011;33403;43.608;1.458;2023-07-31T07:33:04;10.35;;;3.80;;
47659;SDS011;33403;43.608;1.458;2023-07-31T07:35:30;10.57;;;3.50;;
47659;SDS011;33403;43.608;1.458;2023-07-31T07:37:58;10.50;;;3.72;;
47659;SDS011;33403;43.608;1.458;2023-07-31T07:40:24;11.02;;;4.03;;
47659;SDS011;33403;43.608;1.458;2023-07-31T07:42:50;8.50;;;3.75;;
47659;SDS011;33403;43.608;1.458;2023-07-31T07:45:15;11.10;;;3.63;;
47659;SDS011;33403;43.608;1.458;2023-07-31T07:47:41;10.50;;;3.50;;
47659;SDS011;33403;43.608;1.458;2023-07-31T07:50:07;12.25;;;4.05;;
47659;SDS011;33403;43.608;1.458;2023-07-31T07:52:33;9.20;;;3.83;;
47659;SDS011;33403;43.608;1.458;2023-07-31T07:54:59;8.02;;;3.70;;
47659;SDS011;33403;43.608;1.458;2023-07-31T07:57:25;9.40;;;3.80;;
47659;SDS011;33403;43.608;1.458;2023-07-31T07:59:51;11.48;;;3.75;;
47659;SDS011;33403;43.608;1.458;2023-07-31T08:02:16;9.82;;;3.53;;
47659;SDS011;33403;43.608;1.458;2023-07-31T08:04:42;12.30;;;4.10;;
47659;SDS011;33403;43.608;1.458;2023-07-31T08:07:08;9.45;;;3.85;;
47659;SDS011;33403;43.608;1.458;2023-07-31T08:09:37;11.25;;;3.95;;
47659;SDS011;33403;43.608;1.458;2023-07-31T08:12:02;8.27;;;3.45;;
47659;SDS011;33403;43.608;1.458;2023-07-31T08:14:28;8.85;;;3.60;;
47659;SDS011;33403;43.608;1.458;2023-07-31T08:16:54;8.70;;;3.55;;
47659;SDS011;33403;43.608;1.458;2023-07-31T08:19:20;10.20;;;4.43;;
47659;SDS011;33403;43.608;1.458;2023-07-31T08:21:46;11.10;;;3.90;;
47659;SDS011;33403;43.608;1.458;2023-07-31T08:24:12;8.43;;;3.47;;
47659;SDS011;33403;43.608;1.458;2023-07-31T08:26:37;11.23;;;3.85;;
47659;SDS011;33403;43.608;1.458;2023-07-31T08:29:03;9.63;;;3.63;;
47659;SDS011;33403;43.608;1.458;2023-07-31T08:31:29;10.00;;;3.70;;
47659;SDS011;33403;43.608;1.458;2023-07-31T08:33:55;11.07;;;3.67;;
47659;SDS011;33403;43.608;1.458;2023-07-31T08:36:21;8.57;;;3.60;;
47659;SDS011;33403;43.608;1.458;2023-07-31T08:38:47;12.30;;;3.45;;
47659;SDS011;33403;43.608;1.458;2023-07-31T08:41:13;11.63;;;3.90;;
47659;SDS011;33403;43.608;1.458;2023-07-31T08:43:38;7.93;;;3.58;;
47659;SDS011;33403;43.608;1.458;2023-07-31T08:46:05;9.00;;;3.63;;
47659;SDS011;33403;43.608;1.458;2023-07-31T08:48:31;8.32;;;3.55;;
47659;SDS011;33403;43.608;1.458;2023-07-31T08:50:58;9.07;;;3.83;;
47659;SDS011;33403;43.608;1.458;2023-07-31T08:53:24;5.05;;;2.80;;
47659;SDS011;33403;43.608;1.458;2023-07-31T08:55:50;9.73;;;3.30;;
47659;SDS011;33403;43.608;1.458;2023-07-31T08:58:19;8.10;;;3.20;;
47659;SDS011;33403;43.608;1.458;2023-07-31T09:00:46;6.38;;;3.50;;
47659;SDS011;33403;43.608;1.458;2023-07-31T09:03:15;6.80;;;2.90;;
47659;SDS011;33403;43.608;1.458;2023-07-31T09:05:43;8.65;;;3.13;;
47659;SDS011;33403;43.608;1.458;2023-07-31T09:08:10;7.07;;;3.30;;
47659;SDS011;33403;43.608;1.458;2023-07-31T09:10:43;6.55;;;3.08;;
47659;SDS011;33403;43.608;1.458;2023-07-31T09:13:13;6.97;;;2.95;;
47659;SDS011;33403;43.608;1.458;2023-07-31T09:15:39;4.60;;;2.55;;
47659;SDS011;33403;43.608;1.458;2023-07-31T09:18:07;6.82;;;2.42;;
47659;SDS011;33403;43.608;1.458;2023-07-31T09:20:33;4.50;;;2.60;;
47659;SDS011;33403;43.608;1.458;2023-07-31T09:23:10;6.72;;;2.42;;
47659;SDS011;33403;43.608;1.458;2023-07-31T09:25:37;5.32;;;2.47;;
47659;SDS011;33403;43.608;1.458;2023-07-31T09:28:05;7.07;;;2.47;;
47659;SDS011;33403;43.608;1.458;2023-07-31T09:30:53;3.97;;;2.50;;
47659;SDS011;33403;43.608;1.458;2023-07-31T09:33:19;3.47;;;2.42;;
47659;SDS011;33403;43.608;1.458;2023-07-31T09:35:44;6.15;;;2.63;;
47659;SDS011;33403;43.608;1.458;2023-07-31T09:38:13;5.68;;;2.58;;
47659;SDS011;33403;43.608;1.458;2023-07-31T09:40:41;4.35;;;2.50;;
47659;SDS011;33403;43.608;1.458;2023-07-31T09:43:09;4.65;;;2.58;;
47659;SDS011;33403;43.608;1.458;2023-07-31T09:45:39;4.65;;;2.28;;
47659;SDS011;33403;43.608;1.458;2023-07-31T09:48:07;4.97;;;2.38;;
47659;SDS011;33403;43.608;1.458;2023-07-31T09:50:34;5.18;;;2.38;;
47659;SDS011;33403;43.608;1.458;2023-07-31T09:53:03;6.28;;;2.45;;
47659;SDS011;33403;43.608;1.458;2023-07-31T09:55:28;6.70;;;3.00;;
47659;SDS011;33403;43.608;1.458;2023-07-31T09:57:56;5.57;;;2.60;;
47659;SDS011;33403;43.608;1.458;2023-07-31T10:00:22;5.40;;;2.70;;
47659;SDS011;33403;43.608;1.458;2023-07-31T10:02:51;6.63;;;2.65;;
47659;SDS011;33403;43.608;1.458;2023-07-31T10:05:19;5.53;;;3.00;;
47659;SDS011;33403;43.608;1.458;2023-07-31T10:07:49;5.95;;;2.88;;
47659;SDS011;33403;43.608;1.458;2023-07-31T10:10:19;7.60;;;2.50;;
47659;SDS011;33403;43.608;1.458;2023-07-31T10:12:46;6.20;;;2.83;;
47659;SDS011;33403;43.608;1.458;2023-07-31T10:15:14;6.97;;;2.70;;
47659;SDS011;33403;43.608;1.458;2023-07-31T10:17:41;5.10;;;2.50;;
47659;SDS011;33403;43.608;1.458;2023-07-31T10:20:07;6.50;;;2.60;;
47659;SDS011;33403;43.608;1.458;2023-07-31T10:22:34;6.35;;;2.70;;
47659;SDS011;33403;43.608;1.458;2023-07-31T10:25:00;5.10;;;2.78;;
47659;SDS011;33403;43.608;1.458;2023-07-31T10:27:26;5.25;;;2.60;;
47659;SDS011;33403;43.608;1.458;2023-07-31T10:29:52;5.10;;;2.30;;
47659;SDS011;33403;43.608;1.458;2023-07-31T10:32:20;3.47;;;2.40;;
47659;SDS011;33403;43.608;1.458;2023-07-31T10:34:47;4.13;;;2.20;;
47659;SDS011;33403;43.608;1.458;2023-07-31T10:42:38;6.05;;;2.83;;
47659;SDS011;33403;43.608;1.458;2023-07-31T10:45:10;4.70;;;2.30;;
47659;SDS011;33403;43.608;1.458;2023-07-31T10:47:45;5.45;;;2.50;;
47659;SDS011;33403;43.608;1.458;2023-07-31T10:50:21;3.33;;;2.20;;
47659;SDS011;33403;43.608;1.458;2023-07-31T10:52:50;4.65;;;2.60;;
47659;SDS011;33403;43.608;1.458;2023-07-31T10:58:06;8.15;;;2.60;;
47659;SDS011;33403;43.608;1.458;2023-07-31T11:00:37;6.30;;;2.58;;
47659;SDS011;33403;43.608;1.458;2023-07-31T11:03:07;5.88;;;2.50;;
47659;SDS011;33403;43.608;1.458;2023-07-31T11:08:11;6.07;;;2.88;;
47659;SDS011;33403;43.608;1.458;2023-07-31T11:10:45;5.40;;;2.55;;
47659;SDS011;33403;43.608;1.458;2023-07-31T11:13:12;6.40;;;2.80;;
47659;SDS011;33403;43.608;1.458;2023-07-31T11:15:38;5.57;;;2.63;;
47659;SDS011;33403;43.608;1.458;2023-07-31T11:18:04;6.65;;;2.65;;
47659;SDS011;33403;43.608;1.458;2023-07-31T11:20:31;5.07;;;2.47;;
47659;SDS011;33403;43.608;1.458;2023-07-31T11:22:58;5.88;;;2.60;;
47659;SDS011;33403;43.608;1.458;2023-07-31T11:25:25;7.25;;;2.80;;
47659;SDS011;33403;43.608;1.458;2023-07-31T11:27:51;7.43;;;2.65;;
47659;SDS011;33403;43.608;1.458;2023-07-31T11:30:19;7.32;;;2.60;;
47659;SDS011;33403;43.608;1.458;2023-07-31T11:32:45;6.47;;;2.80;;
47659;SDS011;33403;43.608;1.458;2023-07-31T11:35:14;5.00;;;2.42;;
47659;SDS011;33403;43.608;1.458;2023-07-31T11:37:40;5.88;;;2.58;;
47659;SDS011;33403;43.608;1.458;2023-07-31T11:40:06;6.80;;;2.60;;
47659;SDS011;33403;43.608;1.458;2023-07-31T11:42:34;7.63;;;2.83;;
47659;SDS011;33403;43.608;1.458;2023-07-31T11:45:03;4.38;;;2.45;;
47659;SDS011;33403;43.608;1.458;2023-07-31T11:47:33;6.35;;;2.97;;
47659;SDS011;33403;43.608;1.458;2023-07-31T11:50:00;4.40;;;2.40;;
47659;SDS011;33403;43.608;1.458;2023-07-31T11:52:27;4.03;;;2.30;;
47659;SDS011;33403;43.608;1.458;2023-07-31T11:54:56;6.00;;;2.97;;
47659;SDS011;33403;43.608;1.458;2023-07-31T11:57:23;6.00;;;2.70;;
47659;SDS011;33403;43.608;1.458;2023-07-31T11:59:50;6.65;;;2.90;;
47659;SDS011;33403;43.608;1.458;2023-07-31T12:02:17;6.20;;;2.80;;
47659;SDS011;33403;43.608;1.458;2023-07-31T12:04:43;5.82;;;2.80;;
47659;SDS011;33403;43.608;1.458;2023-07-31T12:07:10;5.63;;;2.72;;
47659;SDS011;33403;43.608;1.458;2023-07-31T12:09:37;7.55;;;2.72;;
47659;SDS011;33403;43.608;1.458;2023-07-31T12:12:03;5.78;;;2.85;;
47659;SDS011;33403;43.608;1.458;2023-07-31T12:14:34;5.82;;;2.42;;
47659;SDS011;33403;43.608;1.458;2023-07-31T12:17:00;6.15;;;2.80;;
47659;SDS011;33403;43.608;1.458;2023-07-31T12:19:29;6.20;;;2.80;;
47659;SDS011;33403;43.608;1.458;2023-07-31T12:21:56;5.35;;;2.80;;
47659;SDS011;33403;43.608;1.458;2023-07-31T12:24:23;5.20;;;2.53;;
47659;SDS011;33403;43.608;1.458;2023-07-31T12:26:48;4.70;;;2.60;;
47659;SDS011;33403;43.608;1.458;2023-07-31T12:29:14;5.07;;;2.85;;
47659;SDS011;33403;43.608;1.458;2023-07-31T12:31:41;4.72;;;2.60;;
47659;SDS011;33403;43.608;1.458;2023-07-31T12:34:17;4.40;;;2.47;;
47659;SDS011;33403;43.608;1.458;2023-07-31T12:36:44;5.80;;;2.90;;
47659;SDS011;33403;43.608;1.458;2023-07-31T12:39:09;5.85;;;2.55;;
47659;SDS011;33403;43.608;1.458;2023-07-31T12:41:35;4.95;;;2.53;;
47659;SDS011;33403;43.608;1.458;2023-07-31T12:44:01;3.67;;;2.28;;
47659;SDS011;33403;43.608;1.458;2023-07-31T12:46:28;4.95;;;2.50;;
47659;SDS011;33403;43.608;1.458;2023-07-31T12:48:53;6.00;;;2.65;;
47659;SDS011;33403;43.608;1.458;2023-07-31T12:51:19;4.85;;;2.63;;
47659;SDS011;33403;43.608;1.458;2023-07-31T12:53:46;4.72;;;2.38;;
47659;SDS011;33403;43.608;1.458;2023-07-31T12:56:11;6.00;;;2.50;;
47659;SDS011;33403;43.608;1.458;2023-07-31T12:58:37;6.05;;;2.45;;
47659;SDS011;33403;43.608;1.458;2023-07-31T13:01:02;6.60;;;2.65;;
47659;SDS011;33403;43.608;1.458;2023-07-31T13:03:28;4.30;;;2.65;;
47659;SDS011;33403;43.608;1.458;2023-07-31T13:05:54;4.22;;;2.70;;
47659;SDS011;33403;43.608;1.458;2023-07-31T13:08:20;5.60;;;2.45;;
47659;SDS011;33403;43.608;1.458;2023-07-31T13:10:45;5.55;;;2.60;;
47659;SDS011;33403;43.608;1.458;2023-07-31T13:13:11;3.88;;;2.50;;
47659;SDS011;33403;43.608;1.458;2023-07-31T13:15:37;3.55;;;2.28;;
47659;SDS011;33403;43.608;1.458;2023-07-31T13:18:02;4.60;;;2.72;;
47659;SDS011;33403;43.608;1.458;2023-07-31T13:20:28;6.45;;;2.60;;
47659;SDS011;33403;43.608;1.458;2023-07-31T13:22:54;6.05;;;2.78;;
47659;SDS011;33403;43.608;1.458;2023-07-31T13:25:20;4.10;;;2.33;;
47659;SDS011;33403;43.608;1.458;2023-07-31T13:27:45;5.07;;;2.63;;
47659;SDS011;33403;43.608;1.458;2023-07-31T13:30:11;3.95;;;2.40;;
47659;SDS011;33403;43.608;1.458;2023-07-31T13:32:37;4.38;;;2.47;;
47659;SDS011;33403;43.608;1.458;2023-07-31T13:35:05;5.13;;;2.38;;
47659;SDS011;33403;43.608;1.458;2023-07-31T13:37:32;4.53;;;2.03;;
47659;SDS011;33403;43.608;1.458;2023-07-31T13:39:57;5.10;;;2.50;;
47659;SDS011;33403;43.608;1.458;2023-07-31T13:42:23;4.75;;;2.70;;
47659;SDS011;33403;43.608;1.458;2023-07-31T13:44:48;4.25;;;2.40;;
47659;SDS011;33403;43.608;1.458;2023-07-31T13:47:14;3.70;;;2.10;;
47659;SDS011;33403;43.608;1.458;2023-07-31T13:49:40;4.90;;;2.63;;
47659;SDS011;33403;43.608;1.458;2023-07-31T13:52:06;5.18;;;2.58;;
47659;SDS011;33403;43.608;1.458;2023-07-31T13:54:32;6.78;;;2.72;;
47659;SDS011;33403;43.608;1.458;2023-07-31T13:56:58;3.72;;;2.50;;
47659;SDS011;33403;43.608;1.458;2023-07-31T13:59:23;4.65;;;2.60;;
47659;SDS011;33403;43.608;1.458;2023-07-31T14:01:49;4.25;;;2.30;;
47659;SDS011;33403;43.608;1.458;2023-07-31T14:04:15;3.55;;;2.42;;
47659;SDS011;33403;43.608;1.458;2023-07-31T14:06:42;5.82;;;2.85;;
47659;SDS011;33403;43.608;1.458;2023-07-31T14:09:08;5.85;;;2.58;;
47659;SDS011;33403;43.608;1.458;2023-07-31T14:11:34;4.72;;;2.70;;
47659;SDS011;33403;43.608;1.458;2023-07-31T14:13:59;5.53;;;2.80;;
47659;SDS011;33403;43.608;1.458;2023-07-31T14:16:27;3.78;;;2.45;;
47659;SDS011;33403;43.608;1.458;2023-07-31T14:18:53;4.65;;;2.90;;
47659;SDS011;33403;43.608;1.458;2023-07-31T14:21:19;4.82;;;2.80;;
47659;SDS011;33403;43.608;1.458;2023-07-31T14:23:45;6.32;;;3.03;;
47659;SDS011;33403;43.608;1.458;2023-07-31T14:26:11;4.60;;;3.20;;
47659;SDS011;33403;43.608;1.458;2023-07-31T14:28:36;5.28;;;2.95;;
47659;SDS011;33403;43.608;1.458;2023-07-31T14:31:02;5.50;;;3.08;;
47659;SDS011;33403;43.608;1.458;2023-07-31T14:33:28;6.38;;;2.92;;
47659;SDS011;33403;43.608;1.458;2023-07-31T14:35:53;5.38;;;2.95;;
47659;SDS011;33403;43.608;1.458;2023-07-31T14:38:19;8.77;;;3.30;;
47659;SDS011;33403;43.608;1.458;2023-07-31T14:40:45;4.57;;;2.72;;
47659;SDS011;33403;43.608;1.458;2023-07-31T14:43:11;5.05;;;3.00;;
47659;SDS011;33403;43.608;1.458;2023-07-31T14:45:36;5.03;;;3.15;;
47659;SDS011;33403;43.608;1.458;2023-07-31T14:48:02;5.55;;;3.13;;
47659;SDS011;33403;43.608;1.458;2023-07-31T14:50:28;6.15;;;3.10;;
47659;SDS011;33403;43.608;1.458;2023-07-31T14:52:54;5.60;;;2.88;;
47659;SDS011;33403;43.608;1.458;2023-07-31T14:55:19;5.75;;;3.10;;
47659;SDS011;33403;43.608;1.458;2023-07-31T14:57:45;9.07;;;3.10;;
47659;SDS011;33403;43.608;1.458;2023-07-31T15:00:11;4.95;;;3.28;;